sensor_id;sensor_type;location;lat;lon;timestamp;pressure;altitude;pressure_sealevel;temperature;humidity
28008;BME280;15333;50.010;20.020;2023-07-13T00:01:47;98438.13;;;21.14;100.00
28008;BME280;15333;50.010;20.020;2023-07-13T00:04:50;98434.91;;;21.25;100.00
28008;BME280;15333;50.010;20.020;2023-07-13T00:07:52;98430.06;;;21.06;100.00
28008;BME280;15333;50.010;20.020;2023-07-13T00:10:53;98432.03;;;20.97;100.00
28008;BME280;15333;50.010;20.020;2023-07-13T00:13:57;98433.47;;;20.79;100.00
28008;BME280;15333;50.010;20.020;2023-07-13T00:16:58;98441.06;;;20.68;100.00
28008;BME280;15333;50.010;20.020;2023-07-13T00:20:01;98442.69;;;20.48;100.00
28008;BME280;15333;50.010;20.020;2023-07-13T00:23:02;98444.19;;;20.36;100.00
28008;BME280;15333;50.010;20.020;2023-07-13T00:26:05;98449.22;;;20.24;100.00
28008;BME280;15333;50.010;20.020;2023-07-13T00:29:06;98432.28;;;20.00;100.00
28008;BME280;15333;50.010;20.020;2023-07-13T00:32:10;98444.56;;;19.96;100.00
28008;BME280;15333;50.010;20.020;2023-07-13T00:35:13;98436.41;;;19.96;100.00
28008;BME280;15333;50.010;20.020;2023-07-13T00:38:15;98447.19;;;20.04;100.00
28008;BME280;15333;50.010;20.020;2023-07-13T00:41:16;98442.19;;;19.92;100.00
28008;BME280;15333;50.010;20.020;2023-07-13T00:44:18;98459.59;;;19.83;100.00
28008;BME280;15333;50.010;20.020;2023-07-13T00:47:20;98467.78;;;19.75;100.00
28008;BME280;15333;50.010;20.020;2023-07-13T00:50:21;98484.81;;;19.69;100.00
28008;BME280;15333;50.010;20.020;2023-07-13T00:53:24;98492.66;;;19.64;100.00
28008;BME280;15333;50.010;20.020;2023-07-13T00:56:26;98486.09;;;19.59;100.00
28008;BME280;15333;50.010;20.020;2023-07-13T00:59:27;98487.00;;;19.51;100.00
28008;BME280;15333;50.010;20.020;2023-07-13T01:02:28;98483.09;;;19.45;100.00
28008;BME280;15333;50.010;20.020;2023-07-13T01:05:33;98499.94;;;19.33;100.00
28008;BME280;15333;50.010;20.020;2023-07-13T01:08:34;98497.66;;;19.22;100.00
28008;BME280;15333;50.010;20.020;2023-07-13T01:11:35;98494.97;;;19.13;100.00
28008;BME280;15333;50.010;20.020;2023-07-13T01:14:37;98498.09;;;19.02;100.00
28008;BME280;15333;50.010;20.020;2023-07-13T01:17:38;98494.03;;;18.98;100.00
28008;BME280;15333;50.010;20.020;2023-07-13T01:20:41;98507.25;;;19.01;100.00
28008;BME280;15333;50.010;20.020;2023-07-13T01:23:42;98502.84;;;19.00;100.00
28008;BME280;15333;50.010;20.020;2023-07-13T01:26:45;98493.50;;;19.03;100.00
28008;BME280;15333;50.010;20.020;2023-07-13T01:29:45;98499.78;;;19.03;100.00
28008;BME280;15333;50.010;20.020;2023-07-13T01:32:48;98493.00;;;18.99;100.00
28008;BME280;15333;50.010;20.020;2023-07-13T01:35:50;98471.31;;;18.99;100.00
28008;BME280;15333;50.010;20.020;2023-07-13T01:38:51;98453.72;;;18.95;100.00
28008;BME280;15333;50.010;20.020;2023-07-13T01:41:52;98456.72;;;19.00;100.00
28008;BME280;15333;50.010;20.020;2023-07-13T01:44:54;98439.31;;;18.95;100.00
28008;BME280;15333;50.010;20.020;2023-07-13T01:47:55;98453.59;;;19.11;100.00
28008;BME280;15333;50.010;20.020;2023-07-13T01:50:56;98462.19;;;18.92;100.00
28008;BME280;15333;50.010;20.020;2023-07-13T01:53:57;98451.75;;;18.81;100.00
28008;BME280;15333;50.010;20.020;2023-07-13T01:56:58;98452.09;;;18.78;100.00
28008;BME280;15333;50.010;20.020;2023-07-13T01:59:59;98452.06;;;18.86;100.00
28008;BME280;15333;50.010;20.020;2023-07-13T02:03:00;98431.06;;;18.80;100.00
28008;BME280;15333;50.010;20.020;2023-07-13T02:06:01;98406.00;;;18.78;100.00
28008;BME280;15333;50.010;20.020;2023-07-13T02:09:02;98409.91;;;18.75;100.00
28008;BME280;15333;50.010;20.020;2023-07-13T02:12:03;98396.28;;;18.84;100.00
28008;BME280;15333;50.010;20.020;2023-07-13T02:15:09;98378.56;;;18.73;100.00
28008;BME280;15333;50.010;20.020;2023-07-13T02:18:10;98378.91;;;18.70;100.00
28008;BME280;15333;50.010;20.020;2023-07-13T02:21:11;98389.78;;;18.62;100.00
28008;BME280;15333;50.010;20.020;2023-07-13T02:24:12;98392.88;;;18.59;100.00
28008;BME280;15333;50.010;20.020;2023-07-13T02:27:18;98381.31;;;18.65;100.00
28008;BME280;15333;50.010;20.020;2023-07-13T02:30:24;98386.44;;;18.60;100.00
28008;BME280;15333;50.010;20.020;2023-07-13T02:33:29;98389.16;;;18.52;100.00
28008;BME280;15333;50.010;20.020;2023-07-13T02:36:31;98397.28;;;18.52;100.00
28008;BME280;15333;50.010;20.020;2023-07-13T02:39:32;98399.53;;;18.40;100.00
28008;BME280;15333;50.010;20.020;2023-07-13T02:42:34;98396.00;;;18.31;100.00
28008;BME280;15333;50.010;20.020;2023-07-13T02:45:36;98397.03;;;18.22;100.00
28008;BME280;15333;50.010;20.020;2023-07-13T02:48:38;98395.00;;;18.24;100.00
28008;BME280;15333;50.010;20.020;2023-07-13T02:51:39;98390.59;;;18.31;100.00
28008;BME280;15333;50.010;20.020;2023-07-13T02:54:40;98400.72;;;18.37;100.00
28008;BME280;15333;50.010;20.020;2023-07-13T02:57:41;98400.75;;;18.29;100.00
28008;BME280;15333;50.010;20.020;2023-07-13T03:00:43;98395.88;;;18.17;100.00
28008;BME280;15333;50.010;20.020;2023-07-13T03:03:48;98400.47;;;18.08;100.00
28008;BME280;15333;50.010;20.020;2023-07-13T03:06:49;98387.91;;;18.23;100.00
28008;BME280;15333;50.010;20.020;2023-07-13T03:09:57;98396.63;;;18.42;100.00
28008;BME280;15333;50.010;20.020;2023-07-13T03:13:00;98394.63;;;18.27;100.00
28008;BME280;15333;50.010;20.020;2023-07-13T03:16:02;98392.63;;;18.21;100.00
28008;BME280;15333;50.010;20.020;2023-07-13T03:19:03;98414.13;;;18.23;100.00
28008;BME280;15333;50.010;20.020;2023-07-13T03:22:05;98416.28;;;18.44;100.00
28008;BME280;15333;50.010;20.020;2023-07-13T03:25:07;98414.34;;;18.68;100.00
28008;BME280;15333;50.010;20.020;2023-07-13T03:28:09;98408.63;;;18.94;100.00
28008;BME280;15333;50.010;20.020;2023-07-13T03:31:12;98410.59;;;19.54;100.00
28008;BME280;15333;50.010;20.020;2023-07-13T03:34:15;98407.69;;;19.78;100.00
28008;BME280;15333;50.010;20.020;2023-07-13T03:37:16;98406.84;;;20.30;100.00
28008;BME280;15333;50.010;20.020;2023-07-13T03:40:18;98400.97;;;20.41;100.00
28008;BME280;15333;50.010;20.020;2023-07-13T03:43:20;98412.09;;;20.17;100.00
28008;BME280;15333;50.010;20.020;2023-07-13T03:46:21;98415.13;;;19.99;100.00
28008;BME280;15333;50.010;20.020;2023-07-13T03:49:22;98412.78;;;19.81;100.00
28008;BME280;15333;50.010;20.020;2023-07-13T03:52:23;98410.47;;;19.70;100.00
28008;BME280;15333;50.010;20.020;2023-07-13T03:55:24;98396.88;;;19.93;100.00
28008;BME280;15333;50.010;20.020;2023-07-13T03:58:39;98387.13;;;19.99;100.00
28008;BME280;15333;50.010;20.020;2023-07-13T04:01:51;98379.97;;;20.35;100.00
28008;BME280;15333;50.010;20.020;2023-07-13T04:04:52;98386.97;;;20.15;100.00
28008;BME280;15333;50.010;20.020;2023-07-13T04:07:56;98403.94;;;20.17;100.00
28008;BME280;15333;50.010;20.020;2023-07-13T04:10:58;98400.06;;;20.85;100.00
28008;BME280;15333;50.010;20.020;2023-07-13T04:13:59;98403.66;;;21.85;100.00
28008;BME280;15333;50.010;20.020;2023-07-13T04:17:00;98407.69;;;21.25;100.00
28008;BME280;15333;50.010;20.020;2023-07-13T04:20:01;98410.91;;;21.14;100.00
28008;BME280;15333;50.010;20.020;2023-07-13T04:23:02;98428.19;;;21.64;100.00
28008;BME280;15333;50.010;20.020;2023-07-13T04:26:04;98425.34;;;21.72;100.00
28008;BME280;15333;50.010;20.020;2023-07-13T04:29:06;98424.63;;;21.42;100.00
28008;BME280;15333;50.010;20.020;2023-07-13T04:32:07;98425.84;;;21.82;100.00
28008;BME280;15333;50.010;20.020;2023-07-13T04:35:08;98416.38;;;22.61;100.00
28008;BME280;15333;50.010;20.020;2023-07-13T04:38:09;98423.94;;;23.48;100.00
28008;BME280;15333;50.010;20.020;2023-07-13T04:41:12;98418.94;;;24.11;97.29
28008;BME280;15333;50.010;20.020;2023-07-13T04:44:13;98424.53;;;25.33;85.85
28008;BME280;15333;50.010;20.020;2023-07-13T04:47:15;98431.91;;;23.50;91.06
28008;BME280;15333;50.010;20.020;2023-07-13T04:50:16;98431.78;;;23.23;96.47
28008;BME280;15333;50.010;20.020;2023-07-13T04:53:21;98422.25;;;23.60;98.25
28008;BME280;15333;50.010;20.020;2023-07-13T04:56:22;98416.00;;;24.32;95.20
28008;BME280;15333;50.010;20.020;2023-07-13T04:59:23;98404.13;;;25.29;87.05
28008;BME280;15333;50.010;20.020;2023-07-13T05:02:24;98403.69;;;26.20;81.55
28008;BME280;15333;50.010;20.020;2023-07-13T05:05:26;98394.56;;;25.76;82.16
28008;BME280;15333;50.010;20.020;2023-07-13T05:08:27;98386.56;;;25.99;79.10
28008;BME280;15333;50.010;20.020;2023-07-13T05:11:28;98390.94;;;27.94;66.38
28008;BME280;15333;50.010;20.020;2023-07-13T05:14:29;98393.59;;;27.29;66.79
28008;BME280;15333;50.010;20.020;2023-07-13T05:17:30;98402.44;;;26.16;73.01
28008;BME280;15333;50.010;20.020;2023-07-13T05:20:31;98401.78;;;25.32;77.54
28008;BME280;15333;50.010;20.020;2023-07-13T05:23:33;98400.84;;;24.36;80.50
28008;BME280;15333;50.010;20.020;2023-07-13T05:26:34;98398.75;;;24.12;83.29
28008;BME280;15333;50.010;20.020;2023-07-13T05:29:35;98400.44;;;24.00;89.47
28008;BME280;15333;50.010;20.020;2023-07-13T05:32:36;98404.78;;;25.18;80.05
28008;BME280;15333;50.010;20.020;2023-07-13T05:35:37;98401.50;;;27.08;69.66
28008;BME280;15333;50.010;20.020;2023-07-13T05:38:38;98408.59;;;27.63;66.15
28008;BME280;15333;50.010;20.020;2023-07-13T05:41:39;98400.13;;;27.17;67.11
28008;BME280;15333;50.010;20.020;2023-07-13T05:44:40;98398.16;;;26.26;71.22
28008;BME280;15333;50.010;20.020;2023-07-13T05:47:41;98402.00;;;25.69;75.80
28008;BME280;15333;50.010;20.020;2023-07-13T05:50:41;98395.13;;;25.09;79.24
28008;BME280;15333;50.010;20.020;2023-07-13T05:53:42;98388.81;;;25.08;78.26
28008;BME280;15333;50.010;20.020;2023-07-13T05:56:44;98389.63;;;25.15;77.13
28008;BME280;15333;50.010;20.020;2023-07-13T05:59:45;98397.25;;;25.45;77.74
28008;BME280;15333;50.010;20.020;2023-07-13T06:02:46;98401.97;;;24.86;76.32
28008;BME280;15333;50.010;20.020;2023-07-13T06:05:47;98397.59;;;25.23;77.04
28008;BME280;15333;50.010;20.020;2023-07-13T06:08:48;98410.06;;;25.64;78.26
28008;BME280;15333;50.010;20.020;2023-07-13T06:11:49;98415.09;;;24.51;86.86
28008;BME280;15333;50.010;20.020;2023-07-13T06:14:50;98408.63;;;23.93;88.11
28008;BME280;15333;50.010;20.020;2023-07-13T06:17:51;98406.53;;;24.28;88.41
28008;BME280;15333;50.010;20.020;2023-07-13T06:20:51;98402.00;;;23.22;91.08
28008;BME280;15333;50.010;20.020;2023-07-13T06:23:53;98398.66;;;23.39;90.00
28008;BME280;15333;50.010;20.020;2023-07-13T06:26:53;98391.16;;;23.81;89.63
28008;BME280;15333;50.010;20.020;2023-07-13T06:29:55;98397.91;;;24.05;84.91
28008;BME280;15333;50.010;20.020;2023-07-13T06:32:55;98396.50;;;24.86;82.47
28008;BME280;15333;50.010;20.020;2023-07-13T06:35:56;98390.44;;;25.22;80.14
28008;BME280;15333;50.010;20.020;2023-07-13T06:38:57;98380.81;;;25.13;81.21
28008;BME280;15333;50.010;20.020;2023-07-13T06:41:58;98390.81;;;25.32;78.82
28008;BME280;15333;50.010;20.020;2023-07-13T06:44:59;98395.38;;;24.36;84.12
28008;BME280;15333;50.010;20.020;2023-07-13T06:48:00;98403.31;;;25.15;83.57
28008;BME280;15333;50.010;20.020;2023-07-13T06:51:02;98403.09;;;25.86;73.97
28008;BME280;15333;50.010;20.020;2023-07-13T06:54:03;98412.47;;;24.96;78.93
28008;BME280;15333;50.010;20.020;2023-07-13T06:57:04;98409.69;;;25.09;82.39
28008;BME280;15333;50.010;20.020;2023-07-13T07:00:06;98414.03;;;25.23;78.58
28008;BME280;15333;50.010;20.020;2023-07-13T07:03:07;98413.50;;;25.46;77.33
28008;BME280;15333;50.010;20.020;2023-07-13T07:06:20;98415.47;;;25.32;78.14
28008;BME280;15333;50.010;20.020;2023-07-13T07:09:22;98417.72;;;26.55;70.78
28008;BME280;15333;50.010;20.020;2023-07-13T07:12:23;98411.13;;;26.99;69.73
28008;BME280;15333;50.010;20.020;2023-07-13T07:15:23;98406.84;;;27.21;67.75
28008;BME280;15333;50.010;20.020;2023-07-13T07:18:25;98398.28;;;26.56;70.99
28008;BME280;15333;50.010;20.020;2023-07-13T07:21:25;98393.09;;;26.66;68.95
28008;BME280;15333;50.010;20.020;2023-07-13T07:24:26;98407.16;;;26.08;70.94
28008;BME280;15333;50.010;20.020;2023-07-13T07:27:27;98404.88;;;26.05;70.27
28008;BME280;15333;50.010;20.020;2023-07-13T07:30:28;98407.59;;;26.55;68.75
28008;BME280;15333;50.010;20.020;2023-07-13T07:33:29;98396.69;;;26.85;68.06
28008;BME280;15333;50.010;20.020;2023-07-13T07:36:32;98394.28;;;25.84;74.28
28008;BME280;15333;50.010;20.020;2023-07-13T07:39:32;98385.00;;;26.53;72.70
28008;BME280;15333;50.010;20.020;2023-07-13T07:42:34;98376.63;;;26.66;69.30
28008;BME280;15333;50.010;20.020;2023-07-13T07:45:35;98389.75;;;26.82;68.59
28008;BME280;15333;50.010;20.020;2023-07-13T07:48:36;98376.03;;;26.64;70.34
28008;BME280;15333;50.010;20.020;2023-07-13T07:51:37;98376.41;;;26.49;71.73
28008;BME280;15333;50.010;20.020;2023-07-13T07:54:38;98376.78;;;26.53;72.90
28008;BME280;15333;50.010;20.020;2023-07-13T07:57:39;98371.88;;;26.73;73.25
28008;BME280;15333;50.010;20.020;2023-07-13T08:00:40;98378.34;;;27.15;71.30
28008;BME280;15333;50.010;20.020;2023-07-13T08:03:40;98384.09;;;26.77;73.17
28008;BME280;15333;50.010;20.020;2023-07-13T08:06:42;98395.69;;;27.16;69.10
28008;BME280;15333;50.010;20.020;2023-07-13T08:09:42;98394.91;;;27.27;69.57
28008;BME280;15333;50.010;20.020;2023-07-13T08:12:43;98389.97;;;27.17;69.85
28008;BME280;15333;50.010;20.020;2023-07-13T08:15:44;98393.06;;;27.81;66.59
28008;BME280;15333;50.010;20.020;2023-07-13T08:18:46;98385.34;;;28.01;66.07
28008;BME280;15333;50.010;20.020;2023-07-13T08:21:47;98392.22;;;28.33;65.33
28008;BME280;15333;50.010;20.020;2023-07-13T08:24:49;98390.84;;;28.01;65.46
28008;BME280;15333;50.010;20.020;2023-07-13T08:27:56;98399.41;;;27.70;67.29
28008;BME280;15333;50.010;20.020;2023-07-13T08:31:02;98399.84;;;27.66;66.26
28008;BME280;15333;50.010;20.020;2023-07-13T08:34:02;98392.91;;;28.05;64.51
28008;BME280;15333;50.010;20.020;2023-07-13T08:37:04;98399.06;;;27.78;66.11
28008;BME280;15333;50.010;20.020;2023-07-13T08:40:05;98395.94;;;27.74;64.92
28008;BME280;15333;50.010;20.020;2023-07-13T08:43:11;98387.19;;;27.65;66.49
28008;BME280;15333;50.010;20.020;2023-07-13T08:46:34;98382.16;;;28.39;63.23
28008;BME280;15333;50.010;20.020;2023-07-13T08:49:37;98378.88;;;28.07;64.44
28008;BME280;15333;50.010;20.020;2023-07-13T08:52:40;98381.63;;;28.07;65.35
28008;BME280;15333;50.010;20.020;2023-07-13T08:55:42;98372.69;;;28.47;61.34
28008;BME280;15333;50.010;20.020;2023-07-13T08:58:44;98373.53;;;28.24;61.22
28008;BME280;15333;50.010;20.020;2023-07-13T09:02:01;98354.91;;;27.73;61.88
28008;BME280;15333;50.010;20.020;2023-07-13T09:05:26;98357.09;;;27.11;65.87
28008;BME280;15333;50.010;20.020;2023-07-13T09:08:59;98357.22;;;27.87;62.72
28008;BME280;15333;50.010;20.020;2023-07-13T09:15:55;98353.38;;;27.77;62.62
28008;BME280;15333;50.010;20.020;2023-07-13T09:19:01;98341.38;;;27.59;64.05
28008;BME280;15333;50.010;20.020;2023-07-13T09:22:10;98349.91;;;27.70;62.91
28008;BME280;15333;50.010;20.020;2023-07-13T09:25:30;98350.69;;;27.58;62.56
28008;BME280;15333;50.010;20.020;2023-07-13T09:28:42;98349.00;;;25.75;67.92
28008;BME280;15333;50.010;20.020;2023-07-13T09:31:47;98347.47;;;25.79;69.16
28008;BME280;15333;50.010;20.020;2023-07-13T09:34:51;98351.47;;;25.52;69.06
28008;BME280;15333;50.010;20.020;2023-07-13T09:37:58;98347.66;;;25.53;70.53
28008;BME280;15333;50.010;20.020;2023-07-13T09:44:15;98359.34;;;25.73;68.25
28008;BME280;15333;50.010;20.020;2023-07-13T09:47:30;98350.28;;;25.41;71.38
28008;BME280;15333;50.010;20.020;2023-07-13T09:50:32;98356.63;;;25.42;70.78
28008;BME280;15333;50.010;20.020;2023-07-13T09:53:33;98342.69;;;25.43;69.79
28008;BME280;15333;50.010;20.020;2023-07-13T09:56:33;98351.50;;;25.20;70.77
28008;BME280;15333;50.010;20.020;2023-07-13T09:59:40;98358.63;;;24.77;71.26
28008;BME280;15333;50.010;20.020;2023-07-13T10:02:41;98364.28;;;24.82;71.51
28008;BME280;15333;50.010;20.020;2023-07-13T10:05:44;98364.53;;;24.67;71.69
28008;BME280;15333;50.010;20.020;2023-07-13T10:08:46;98364.56;;;24.61;72.59
28008;BME280;15333;50.010;20.020;2023-07-13T10:11:50;98362.41;;;24.76;72.27
28008;BME280;15333;50.010;20.020;2023-07-13T10:14:56;98357.06;;;24.43;74.07
28008;BME280;15333;50.010;20.020;2023-07-13T10:17:59;98359.63;;;24.05;76.96
28008;BME280;15333;50.010;20.020;2023-07-13T10:21:11;98370.59;;;23.78;81.64
28008;BME280;15333;50.010;20.020;2023-07-13T10:24:20;98378.34;;;23.55;83.58
28008;BME280;15333;50.010;20.020;2023-07-13T10:27:52;98374.31;;;23.45;87.67
28008;BME280;15333;50.010;20.020;2023-07-13T10:30:55;98380.97;;;23.16;91.69
28008;BME280;15333;50.010;20.020;2023-07-13T10:33:58;98392.66;;;22.96;94.50
28008;BME280;15333;50.010;20.020;2023-07-13T10:37:00;98399.81;;;22.63;99.14
28008;BME280;15333;50.010;20.020;2023-07-13T10:40:03;98413.22;;;22.23;100.00
28008;BME280;15333;50.010;20.020;2023-07-13T10:43:55;98426.44;;;21.35;100.00
28008;BME280;15333;50.010;20.020;2023-07-13T10:46:32;98431.72;;;20.71;100.00
28008;BME280;15333;50.010;20.020;2023-07-13T10:49:35;98452.16;;;20.38;100.00
28008;BME280;15333;50.010;20.020;2023-07-13T11:02:13;98471.53;;;19.21;100.00
28008;BME280;15333;50.010;20.020;2023-07-13T11:05:31;98469.88;;;19.11;100.00
28008;BME280;15333;50.010;20.020;2023-07-13T11:08:35;98475.69;;;19.08;100.00
28008;BME280;15333;50.010;20.020;2023-07-13T11:11:39;98474.78;;;19.16;100.00
28008;BME280;15333;50.010;20.020;2023-07-13T11:17:56;98481.44;;;19.05;100.00
28008;BME280;15333;50.010;20.020;2023-07-13T11:21:34;98481.53;;;18.89;100.00
28008;BME280;15333;50.010;20.020;2023-07-13T11:24:57;98493.28;;;18.73;100.00
28008;BME280;15333;50.010;20.020;2023-07-13T11:31:14;98540.78;;;18.37;100.00
28008;BME280;15333;50.010;20.020;2023-07-13T11:34:25;98555.84;;;18.07;100.00
28008;BME280;15333;50.010;20.020;2023-07-13T11:37:28;98562.56;;;17.63;100.00
28008;BME280;15333;50.010;20.020;2023-07-13T11:40:30;98565.03;;;17.48;100.00
28008;BME280;15333;50.010;20.020;2023-07-13T11:43:31;98586.13;;;17.36;100.00
28008;BME280;15333;50.010;20.020;2023-07-13T11:46:34;98636.69;;;17.78;100.00
28008;BME280;15333;50.010;20.020;2023-07-13T11:49:54;98642.84;;;17.88;100.00
28008;BME280;15333;50.010;20.020;2023-07-13T11:53:00;98638.06;;;17.74;100.00
28008;BME280;15333;50.010;20.020;2023-07-13T11:56:01;98644.66;;;17.37;100.00
28008;BME280;15333;50.010;20.020;2023-07-13T11:59:07;98624.53;;;17.06;100.00
28008;BME280;15333;50.010;20.020;2023-07-13T12:02:18;98649.47;;;16.92;100.00
28008;BME280;15333;50.010;20.020;2023-07-13T12:05:24;98641.31;;;16.83;100.00
28008;BME280;15333;50.010;20.020;2023-07-13T12:08:25;98646.50;;;16.77;100.00
28008;BME280;15333;50.010;20.020;2023-07-13T12:11:27;98656.41;;;16.68;100.00
28008;BME280;15333;50.010;20.020;2023-07-13T12:14:28;98643.53;;;16.62;100.00
28008;BME280;15333;50.010;20.020;2023-07-13T12:17:29;98641.41;;;16.56;100.00
28008;BME280;15333;50.010;20.020;2023-07-13T12:20:36;98656.72;;;16.48;100.00
28008;BME280;15333;50.010;20.020;2023-07-13T12:23:38;98662.66;;;16.51;100.00
28008;BME280;15333;50.010;20.020;2023-07-13T12:26:39;98664.06;;;16.55;100.00
28008;BME280;15333;50.010;20.020;2023-07-13T12:29:49;98663.72;;;16.58;100.00
28008;BME280;15333;50.010;20.020;2023-07-13T12:36:04;98676.22;;;16.59;100.00
28008;BME280;15333;50.010;20.020;2023-07-13T12:45:27;98670.28;;;16.73;100.00
28008;BME280;15333;50.010;20.020;2023-07-13T12:48:39;98663.88;;;16.74;100.00
28008;BME280;15333;50.010;20.020;2023-07-13T12:51:41;98658.81;;;16.97;100.00
28008;BME280;15333;50.010;20.020;2023-07-13T12:54:56;98655.97;;;17.07;100.00
28008;BME280;15333;50.010;20.020;2023-07-13T12:57:58;98638.44;;;17.11;100.00
28008;BME280;15333;50.010;20.020;2023-07-13T13:01:01;98637.44;;;17.20;100.00
28008;BME280;15333;50.010;20.020;2023-07-13T13:04:03;98644.56;;;17.21;100.00
28008;BME280;15333;50.010;20.020;2023-07-13T13:07:09;98641.59;;;17.32;100.00
28008;BME280;15333;50.010;20.020;2023-07-13T13:10:12;98644.00;;;17.43;100.00
28008;BME280;15333;50.010;20.020;2023-07-13T13:13:13;98642.63;;;17.39;100.00
28008;BME280;15333;50.010;20.020;2023-07-13T13:16:26;98639.66;;;17.58;100.00
28008;BME280;15333;50.010;20.020;2023-07-13T13:19:33;98655.50;;;17.79;100.00
28008;BME280;15333;50.010;20.020;2023-07-13T13:22:34;98648.84;;;17.66;100.00
28008;BME280;15333;50.010;20.020;2023-07-13T13:25:35;98641.31;;;17.51;100.00
28008;BME280;15333;50.010;20.020;2023-07-13T13:28:36;98638.22;;;17.72;100.00
28008;BME280;15333;50.010;20.020;2023-07-13T13:31:37;98630.94;;;17.73;100.00
28008;BME280;15333;50.010;20.020;2023-07-13T13:34:39;98639.56;;;17.76;100.00
28008;BME280;15333;50.010;20.020;2023-07-13T13:37:41;98645.69;;;17.86;100.00
28008;BME280;15333;50.010;20.020;2023-07-13T13:40:43;98643.34;;;17.91;100.00
28008;BME280;15333;50.010;20.020;2023-07-13T13:43:45;98650.44;;;17.92;100.00
28008;BME280;15333;50.010;20.020;2023-07-13T13:46:52;98648.47;;;18.27;100.00
28008;BME280;15333;50.010;20.020;2023-07-13T13:49:54;98651.19;;;18.11;100.00
28008;BME280;15333;50.010;20.020;2023-07-13T13:52:55;98639.84;;;18.23;100.00
28008;BME280;15333;50.010;20.020;2023-07-13T13:55:56;98643.69;;;18.05;100.00
28008;BME280;15333;50.010;20.020;2023-07-13T13:58:57;98648.59;;;18.01;100.00
28008;BME280;15333;50.010;20.020;2023-07-13T14:01:58;98639.81;;;18.15;100.00
28008;BME280;15333;50.010;20.020;2023-07-13T14:05:02;98637.28;;;18.22;100.00
28008;BME280;15333;50.010;20.020;2023-07-13T14:08:04;98645.44;;;18.38;100.00
28008;BME280;15333;50.010;20.020;2023-07-13T14:11:05;98642.91;;;18.85;100.00
28008;BME280;15333;50.010;20.020;2023-07-13T14:14:12;98638.75;;;19.13;100.00
28008;BME280;15333;50.010;20.020;2023-07-13T14:17:20;98631.44;;;19.69;100.00
28008;BME280;15333;50.010;20.020;2023-07-13T14:20:25;98626.09;;;20.15;100.00
28008;BME280;15333;50.010;20.020;2023-07-13T14:23:26;98617.16;;;20.29;100.00
28008;BME280;15333;50.010;20.020;2023-07-13T14:26:28;98626.34;;;20.28;100.00
28008;BME280;15333;50.010;20.020;2023-07-13T14:29:32;98617.44;;;20.11;100.00
28008;BME280;15333;50.010;20.020;2023-07-13T14:32:34;98613.47;;;19.68;100.00
28008;BME280;15333;50.010;20.020;2023-07-13T14:35:35;98612.66;;;19.90;100.00
28008;BME280;15333;50.010;20.020;2023-07-13T14:38:36;98617.59;;;19.56;100.00
28008;BME280;15333;50.010;20.020;2023-07-13T14:41:37;98619.75;;;20.00;100.00
28008;BME280;15333;50.010;20.020;2023-07-13T14:44:38;98622.53;;;19.83;100.00
28008;BME280;15333;50.010;20.020;2023-07-13T14:47:40;98624.56;;;19.59;100.00
28008;BME280;15333;50.010;20.020;2023-07-13T14:50:42;98639.00;;;19.43;100.00
28008;BME280;15333;50.010;20.020;2023-07-13T14:53:42;98637.28;;;19.58;100.00
28008;BME280;15333;50.010;20.020;2023-07-13T14:56:43;98633.41;;;19.52;100.00
28008;BME280;15333;50.010;20.020;2023-07-13T14:59:45;98628.97;;;19.90;100.00
28008;BME280;15333;50.010;20.020;2023-07-13T15:02:55;98634.53;;;20.20;100.00
28008;BME280;15333;50.010;20.020;2023-07-13T15:05:57;98654.69;;;20.94;100.00
28008;BME280;15333;50.010;20.020;2023-07-13T15:08:58;98669.53;;;20.68;100.00
28008;BME280;15333;50.010;20.020;2023-07-13T15:11:59;98676.50;;;20.48;100.00
28008;BME280;15333;50.010;20.020;2023-07-13T15:15:00;98683.63;;;20.49;100.00
28008;BME280;15333;50.010;20.020;2023-07-13T15:18:01;98673.94;;;20.69;100.00
28008;BME280;15333;50.010;20.020;2023-07-13T15:21:02;98663.69;;;20.80;100.00
28008;BME280;15333;50.010;20.020;2023-07-13T15:24:04;98654.03;;;20.54;100.00
28008;BME280;15333;50.010;20.020;2023-07-13T15:27:11;98655.25;;;20.52;100.00
28008;BME280;15333;50.010;20.020;2023-07-13T15:30:14;98654.50;;;20.81;100.00
28008;BME280;15333;50.010;20.020;2023-07-13T15:33:27;98655.56;;;20.94;100.00
28008;BME280;15333;50.010;20.020;2023-07-13T15:36:28;98667.56;;;21.00;100.00
28008;BME280;15333;50.010;20.020;2023-07-13T15:39:29;98657.31;;;20.87;100.00
28008;BME280;15333;50.010;20.020;2023-07-13T15:42:31;98667.84;;;21.05;100.00
28008;BME280;15333;50.010;20.020;2023-07-13T15:45:32;98666.69;;;20.85;100.00
28008;BME280;15333;50.010;20.020;2023-07-13T15:48:33;98655.34;;;20.58;100.00
28008;BME280;15333;50.010;20.020;2023-07-13T15:51:34;98663.91;;;20.24;100.00
28008;BME280;15333;50.010;20.020;2023-07-13T15:54:35;98665.63;;;20.48;100.00
28008;BME280;15333;50.010;20.020;2023-07-13T15:57:36;98666.28;;;20.50;100.00
28008;BME280;15333;50.010;20.020;2023-07-13T16:00:38;98662.97;;;20.40;100.00
28008;BME280;15333;50.010;20.020;2023-07-13T16:03:40;98669.81;;;20.28;100.00
28008;BME280;15333;50.010;20.020;2023-07-13T16:06:42;98674.28;;;20.21;100.00
28008;BME280;15333;50.010;20.020;2023-07-13T16:09:44;98679.00;;;20.27;100.00
28008;BME280;15333;50.010;20.020;2023-07-13T16:12:45;98685.09;;;20.37;100.00
28008;BME280;15333;50.010;20.020;2023-07-13T16:15:47;98688.97;;;19.81;100.00
28008;BME280;15333;50.010;20.020;2023-07-13T16:18:48;98706.16;;;19.65;100.00
28008;BME280;15333;50.010;20.020;2023-07-13T16:21:50;98701.06;;;19.62;100.00